sensor_id;sensor_type;location;lat;lon;timestamp;P1;durP1;ratioP1;P2;durP2;ratioP2
34064;SDS011;20339;49.754;20.158;2022-11-15T00:02:23;13.20;;;8.80;;
34064;SDS011;20339;49.754;20.158;2022-11-15T00:04:55;13.00;;;8.40;;
34064;SDS011;20339;49.754;20.158;2022-11-15T00:07:26;13.10;;;8.00;;
34064;SDS011;20339;49.754;20.158;2022-11-15T00:09:57;11.90;;;8.30;;
34064;SDS011;20339;49.754;20.158;2022-11-15T00:12:28;12.10;;;7.60;;
34064;SDS011;20339;49.754;20.158;2022-11-15T00:14:59;11.70;;;8.60;;
34064;SDS011;20339;49.754;20.158;2022-11-15T00:17:30;12.30;;;8.30;;
34064;SDS011;20339;49.754;20.158;2022-11-15T00:20:01;11.30;;;8.10;;
34064;SDS011;20339;49.754;20.158;2022-11-15T00:22:33;11.80;;;8.20;;
34064;SDS011;20339;49.754;20.158;2022-11-15T00:25:05;12.30;;;7.50;;
34064;SDS011;20339;49.754;20.158;2022-11-15T00:27:37;11.80;;;7.90;;
34064;SDS011;20339;49.754;20.158;2022-11-15T00:30:09;12.70;;;8.60;;
34064;SDS011;20339;49.754;20.158;2022-11-15T00:32:41;11.00;;;8.20;;
34064;SDS011;20339;49.754;20.158;2022-11-15T00:35:12;10.70;;;7.00;;
34064;SDS011;20339;49.754;20.158;2022-11-15T00:37:44;11.70;;;8.50;;
34064;SDS011;20339;49.754;20.158;2022-11-15T00:40:16;11.80;;;7.70;;
34064;SDS011;20339;49.754;20.158;2022-11-15T00:42:47;12.20;;;8.90;;
34064;SDS011;20339;49.754;20.158;2022-11-15T00:45:18;12.00;;;8.40;;
34064;SDS011;20339;49.754;20.158;2022-11-15T00:47:52;11.60;;;8.80;;
34064;SDS011;20339;49.754;20.158;2022-11-15T00:50:24;11.70;;;8.60;;
34064;SDS011;20339;49.754;20.158;2022-11-15T00:52:55;11.90;;;8.20;;
34064;SDS011;20339;49.754;20.158;2022-11-15T00:55:26;14.30;;;8.70;;
34064;SDS011;20339;49.754;20.158;2022-11-15T00:57:57;11.20;;;7.50;;
34064;SDS011;20339;49.754;20.158;2022-11-15T01:00:30;12.20;;;7.30;;
34064;SDS011;20339;49.754;20.158;2022-11-15T01:03:01;11.20;;;8.30;;
34064;SDS011;20339;49.754;20.158;2022-11-15T01:05:36;11.70;;;8.20;;
34064;SDS011;20339;49.754;20.158;2022-11-15T01:08:10;10.70;;;7.80;;
34064;SDS011;20339;49.754;20.158;2022-11-15T01:10:45;12.10;;;8.10;;
34064;SDS011;20339;49.754;20.158;2022-11-15T01:13:16;12.50;;;8.00;;
34064;SDS011;20339;49.754;20.158;2022-11-15T01:15:48;10.40;;;7.20;;
34064;SDS011;20339;49.754;20.158;2022-11-15T01:18:21;12.50;;;8.20;;
34064;SDS011;20339;49.754;20.158;2022-11-15T01:20:54;9.70;;;7.20;;
34064;SDS011;20339;49.754;20.158;2022-11-15T01:23:26;10.40;;;7.50;;
34064;SDS011;20339;49.754;20.158;2022-11-15T01:25:59;11.60;;;7.70;;
34064;SDS011;20339;49.754;20.158;2022-11-15T01:28:32;11.40;;;8.10;;
34064;SDS011;20339;49.754;20.158;2022-11-15T01:31:05;10.90;;;8.00;;
34064;SDS011;20339;49.754;20.158;2022-11-15T01:33:38;10.50;;;6.90;;
34064;SDS011;20339;49.754;20.158;2022-11-15T01:36:10;9.70;;;7.00;;
34064;SDS011;20339;49.754;20.158;2022-11-15T01:38:43;11.90;;;7.50;;
34064;SDS011;20339;49.754;20.158;2022-11-15T01:41:22;9.10;;;5.80;;
34064;SDS011;20339;49.754;20.158;2022-11-15T01:43:54;11.00;;;7.10;;
34064;SDS011;20339;49.754;20.158;2022-11-15T01:46:48;10.60;;;6.30;;
34064;SDS011;20339;49.754;20.158;2022-11-15T01:49:20;11.60;;;7.40;;
34064;SDS011;20339;49.754;20.158;2022-11-15T01:51:52;11.50;;;7.50;;
34064;SDS011;20339;49.754;20.158;2022-11-15T01:54:24;11.10;;;6.80;;
34064;SDS011;20339;49.754;20.158;2022-11-15T01:56:59;12.30;;;8.30;;
34064;SDS011;20339;49.754;20.158;2022-11-15T01:59:33;11.10;;;7.80;;
34064;SDS011;20339;49.754;20.158;2022-11-15T02:02:06;11.90;;;8.40;;
34064;SDS011;20339;49.754;20.158;2022-11-15T02:04:37;10.50;;;7.30;;
34064;SDS011;20339;49.754;20.158;2022-11-15T02:07:13;9.40;;;5.60;;
34064;SDS011;20339;49.754;20.158;2022-11-15T02:09:46;8.20;;;5.70;;
34064;SDS011;20339;49.754;20.158;2022-11-15T02:12:19;12.20;;;7.20;;
34064;SDS011;20339;49.754;20.158;2022-11-15T02:14:52;10.30;;;7.50;;
34064;SDS011;20339;49.754;20.158;2022-11-15T02:17:33;10.40;;;7.30;;
34064;SDS011;20339;49.754;20.158;2022-11-15T02:23:28;11.20;;;7.60;;
34064;SDS011;20339;49.754;20.158;2022-11-15T02:29:23;8.80;;;5.80;;
34064;SDS011;20339;49.754;20.158;2022-11-15T02:32:06;12.10;;;7.70;;
34064;SDS011;20339;49.754;20.158;2022-11-15T02:34:46;9.10;;;6.20;;
34064;SDS011;20339;49.754;20.158;2022-11-15T02:37:27;10.50;;;7.20;;
34064;SDS011;20339;49.754;20.158;2022-11-15T02:40:06;10.70;;;7.60;;
34064;SDS011;20339;49.754;20.158;2022-11-15T02:42:44;11.70;;;7.60;;
34064;SDS011;20339;49.754;20.158;2022-11-15T02:45:41;9.60;;;6.00;;
34064;SDS011;20339;49.754;20.158;2022-11-15T02:48:19;10.80;;;7.60;;
34064;SDS011;20339;49.754;20.158;2022-11-15T02:50:56;11.90;;;8.00;;
34064;SDS011;20339;49.754;20.158;2022-11-15T02:53:28;10.10;;;7.20;;
34064;SDS011;20339;49.754;20.158;2022-11-15T02:55:59;11.40;;;6.70;;
34064;SDS011;20339;49.754;20.158;2022-11-15T02:58:44;10.20;;;7.20;;
34064;SDS011;20339;49.754;20.158;2022-11-15T03:01:29;10.50;;;7.10;;
34064;SDS011;20339;49.754;20.158;2022-11-15T03:04:10;9.50;;;7.50;;
34064;SDS011;20339;49.754;20.158;2022-11-15T03:06:55;9.40;;;7.10;;
34064;SDS011;20339;49.754;20.158;2022-11-15T03:09:33;10.10;;;7.20;;
34064;SDS011;20339;49.754;20.158;2022-11-15T03:12:10;9.90;;;6.60;;
34064;SDS011;20339;49.754;20.158;2022-11-15T03:14:49;9.20;;;6.30;;
34064;SDS011;20339;49.754;20.158;2022-11-15T03:17:26;9.20;;;6.30;;
34064;SDS011;20339;49.754;20.158;2022-11-15T03:20:03;9.60;;;6.60;;
34064;SDS011;20339;49.754;20.158;2022-11-15T03:22:38;8.80;;;6.20;;
34064;SDS011;20339;49.754;20.158;2022-11-15T03:25:13;9.50;;;6.90;;
34064;SDS011;20339;49.754;20.158;2022-11-15T03:27:50;8.00;;;6.00;;
34064;SDS011;20339;49.754;20.158;2022-11-15T03:30:28;7.80;;;6.30;;
34064;SDS011;20339;49.754;20.158;2022-11-15T03:33:01;10.20;;;6.70;;
34064;SDS011;20339;49.754;20.158;2022-11-15T03:35:35;9.70;;;6.60;;
34064;SDS011;20339;49.754;20.158;2022-11-15T03:38:14;7.70;;;6.30;;
34064;SDS011;20339;49.754;20.158;2022-11-15T03:40:53;8.50;;;6.00;;
34064;SDS011;20339;49.754;20.158;2022-11-15T03:43:39;7.90;;;5.80;;
34064;SDS011;20339;49.754;20.158;2022-11-15T03:46:16;11.80;;;7.00;;
34064;SDS011;20339;49.754;20.158;2022-11-15T03:48:53;8.60;;;5.80;;
34064;SDS011;20339;49.754;20.158;2022-11-15T03:51:28;7.90;;;6.00;;
34064;SDS011;20339;49.754;20.158;2022-11-15T03:54:00;8.10;;;5.60;;
34064;SDS011;20339;49.754;20.158;2022-11-15T03:56:33;7.90;;;5.80;;
34064;SDS011;20339;49.754;20.158;2022-11-15T03:59:05;8.10;;;6.10;;
34064;SDS011;20339;49.754;20.158;2022-11-15T04:01:36;7.80;;;5.80;;
34064;SDS011;20339;49.754;20.158;2022-11-15T04:04:07;8.60;;;5.90;;
34064;SDS011;20339;49.754;20.158;2022-11-15T04:06:39;8.40;;;5.90;;
34064;SDS011;20339;49.754;20.158;2022-11-15T04:09:10;9.40;;;6.50;;
34064;SDS011;20339;49.754;20.158;2022-11-15T04:11:41;9.80;;;6.40;;
34064;SDS011;20339;49.754;20.158;2022-11-15T04:14:12;9.30;;;6.00;;
34064;SDS011;20339;49.754;20.158;2022-11-15T04:16:43;8.10;;;5.60;;
34064;SDS011;20339;49.754;20.158;2022-11-15T04:19:15;9.40;;;6.10;;
34064;SDS011;20339;49.754;20.158;2022-11-15T04:22:04;9.10;;;5.80;;
34064;SDS011;20339;49.754;20.158;2022-11-15T04:24:54;9.00;;;6.40;;
34064;SDS011;20339;49.754;20.158;2022-11-15T04:27:25;7.90;;;5.50;;
34064;SDS011;20339;49.754;20.158;2022-11-15T04:29:56;7.60;;;5.20;;
34064;SDS011;20339;49.754;20.158;2022-11-15T04:32:27;8.60;;;5.60;;
34064;SDS011;20339;49.754;20.158;2022-11-15T04:34:59;7.70;;;5.10;;
34064;SDS011;20339;49.754;20.158;2022-11-15T04:37:32;9.60;;;6.50;;
34064;SDS011;20339;49.754;20.158;2022-11-15T04:40:04;8.70;;;6.10;;
34064;SDS011;20339;49.754;20.158;2022-11-15T04:42:37;9.30;;;6.10;;
34064;SDS011;20339;49.754;20.158;2022-11-15T04:45:09;7.00;;;5.00;;
34064;SDS011;20339;49.754;20.158;2022-11-15T04:47:41;6.60;;;4.70;;
34064;SDS011;20339;49.754;20.158;2022-11-15T04:50:14;7.90;;;5.50;;
34064;SDS011;20339;49.754;20.158;2022-11-15T04:52:51;7.60;;;5.50;;
34064;SDS011;20339;49.754;20.158;2022-11-15T04:55:23;9.30;;;5.60;;
34064;SDS011;20339;49.754;20.158;2022-11-15T04:58:00;8.30;;;5.50;;
34064;SDS011;20339;49.754;20.158;2022-11-15T05:00:32;8.00;;;5.90;;
34064;SDS011;20339;49.754;20.158;2022-11-15T05:03:03;11.00;;;6.00;;
34064;SDS011;20339;49.754;20.158;2022-11-15T05:05:51;6.30;;;4.20;;
34064;SDS011;20339;49.754;20.158;2022-11-15T05:08:25;9.20;;;6.30;;
34064;SDS011;20339;49.754;20.158;2022-11-15T05:10:57;6.90;;;5.00;;
34064;SDS011;20339;49.754;20.158;2022-11-15T05:13:28;8.00;;;5.70;;
34064;SDS011;20339;49.754;20.158;2022-11-15T05:15:59;10.00;;;5.80;;
34064;SDS011;20339;49.754;20.158;2022-11-15T05:18:30;8.40;;;5.90;;
34064;SDS011;20339;49.754;20.158;2022-11-15T05:21:04;8.00;;;6.10;;
34064;SDS011;20339;49.754;20.158;2022-11-15T05:23:37;8.40;;;4.80;;
34064;SDS011;20339;49.754;20.158;2022-11-15T05:26:08;15.90;;;6.20;;
34064;SDS011;20339;49.754;20.158;2022-11-15T05:28:45;12.40;;;8.70;;
34064;SDS011;20339;49.754;20.158;2022-11-15T05:31:22;12.80;;;7.10;;
34064;SDS011;20339;49.754;20.158;2022-11-15T05:34:04;16.30;;;11.30;;
34064;SDS011;20339;49.754;20.158;2022-11-15T05:36:38;60.20;;;25.90;;
34064;SDS011;20339;49.754;20.158;2022-11-15T05:39:12;84.40;;;34.90;;
34064;SDS011;20339;49.754;20.158;2022-11-15T05:41:44;88.60;;;36.60;;
34064;SDS011;20339;49.754;20.158;2022-11-15T05:44:22;9.70;;;6.60;;
34064;SDS011;20339;49.754;20.158;2022-11-15T05:46:54;13.10;;;7.50;;
34064;SDS011;20339;49.754;20.158;2022-11-15T05:49:28;8.50;;;5.20;;
34064;SDS011;20339;49.754;20.158;2022-11-15T05:52:04;8.30;;;6.20;;
34064;SDS011;20339;49.754;20.158;2022-11-15T05:54:38;7.50;;;4.10;;
34064;SDS011;20339;49.754;20.158;2022-11-15T05:57:10;9.10;;;5.70;;
34064;SDS011;20339;49.754;20.158;2022-11-15T05:59:42;46.60;;;15.60;;
34064;SDS011;20339;49.754;20.158;2022-11-15T06:02:13;76.80;;;21.30;;
34064;SDS011;20339;49.754;20.158;2022-11-15T06:04:45;15.70;;;7.70;;
34064;SDS011;20339;49.754;20.158;2022-11-15T06:07:16;7.30;;;5.20;;
34064;SDS011;20339;49.754;20.158;2022-11-15T06:09:47;52.90;;;22.00;;
34064;SDS011;20339;49.754;20.158;2022-11-15T06:12:18;35.20;;;18.50;;
34064;SDS011;20339;49.754;20.158;2022-11-15T06:14:52;9.70;;;6.80;;
34064;SDS011;20339;49.754;20.158;2022-11-15T06:17:23;8.60;;;6.00;;
34064;SDS011;20339;49.754;20.158;2022-11-15T06:19:54;9.10;;;6.00;;
34064;SDS011;20339;49.754;20.158;2022-11-15T06:22:26;7.00;;;5.00;;
34064;SDS011;20339;49.754;20.158;2022-11-15T06:24:57;7.00;;;4.50;;
34064;SDS011;20339;49.754;20.158;2022-11-15T06:27:28;6.80;;;4.50;;
34064;SDS011;20339;49.754;20.158;2022-11-15T06:29:59;7.80;;;5.90;;
34064;SDS011;20339;49.754;20.158;2022-11-15T06:32:30;7.20;;;6.00;;
34064;SDS011;20339;49.754;20.158;2022-11-15T06:35:01;8.60;;;5.90;;
34064;SDS011;20339;49.754;20.158;2022-11-15T06:37:34;8.10;;;5.90;;
34064;SDS011;20339;49.754;20.158;2022-11-15T06:40:07;7.90;;;4.70;;
34064;SDS011;20339;49.754;20.158;2022-11-15T06:42:40;7.40;;;5.60;;
34064;SDS011;20339;49.754;20.158;2022-11-15T06:45:11;6.30;;;4.50;;
34064;SDS011;20339;49.754;20.158;2022-11-15T06:47:45;6.70;;;5.10;;
34064;SDS011;20339;49.754;20.158;2022-11-15T06:50:17;6.60;;;5.00;;
34064;SDS011;20339;49.754;20.158;2022-11-15T06:52:48;5.40;;;4.10;;
34064;SDS011;20339;49.754;20.158;2022-11-15T06:55:20;4.70;;;4.20;;
34064;SDS011;20339;49.754;20.158;2022-11-15T06:57:52;5.70;;;4.60;;
34064;SDS011;20339;49.754;20.158;2022-11-15T07:00:23;5.10;;;4.00;;
34064;SDS011;20339;49.754;20.158;2022-11-15T07:02:55;5.50;;;4.40;;
34064;SDS011;20339;49.754;20.158;2022-11-15T07:05:28;5.60;;;4.40;;
34064;SDS011;20339;49.754;20.158;2022-11-15T07:08:02;5.60;;;3.70;;
34064;SDS011;20339;49.754;20.158;2022-11-15T07:10:35;5.70;;;4.00;;
34064;SDS011;20339;49.754;20.158;2022-11-15T07:13:07;4.80;;;4.00;;
34064;SDS011;20339;49.754;20.158;2022-11-15T07:15:38;5.10;;;4.60;;
34064;SDS011;20339;49.754;20.158;2022-11-15T07:18:09;5.00;;;4.50;;
34064;SDS011;20339;49.754;20.158;2022-11-15T07:20:43;5.20;;;4.10;;
34064;SDS011;20339;49.754;20.158;2022-11-15T07:23:14;7.50;;;4.00;;
34064;SDS011;20339;49.754;20.158;2022-11-15T07:25:46;5.00;;;4.40;;
34064;SDS011;20339;49.754;20.158;2022-11-15T07:28:17;6.40;;;4.10;;
34064;SDS011;20339;49.754;20.158;2022-11-15T07:30:48;4.80;;;4.20;;
34064;SDS011;20339;49.754;20.158;2022-11-15T07:33:22;4.80;;;4.30;;
34064;SDS011;20339;49.754;20.158;2022-11-15T07:35:53;6.50;;;4.00;;
34064;SDS011;20339;49.754;20.158;2022-11-15T07:38:27;5.30;;;4.40;;
34064;SDS011;20339;49.754;20.158;2022-11-15T07:40:59;5.80;;;4.50;;
34064;SDS011;20339;49.754;20.158;2022-11-15T07:43:32;6.30;;;4.20;;
34064;SDS011;20339;49.754;20.158;2022-11-15T07:46:05;7.00;;;4.30;;
34064;SDS011;20339;49.754;20.158;2022-11-15T07:48:37;6.70;;;4.70;;
34064;SDS011;20339;49.754;20.158;2022-11-15T07:51:11;6.60;;;4.90;;
34064;SDS011;20339;49.754;20.158;2022-11-15T07:53:46;5.90;;;5.00;;
34064;SDS011;20339;49.754;20.158;2022-11-15T07:56:17;6.60;;;5.10;;
34064;SDS011;20339;49.754;20.158;2022-11-15T07:58:51;5.80;;;4.60;;
34064;SDS011;20339;49.754;20.158;2022-11-15T08:01:22;6.40;;;4.80;;
34064;SDS011;20339;49.754;20.158;2022-11-15T08:03:54;5.40;;;4.20;;
34064;SDS011;20339;49.754;20.158;2022-11-15T08:06:25;6.00;;;4.80;;
34064;SDS011;20339;49.754;20.158;2022-11-15T08:08:56;7.40;;;5.10;;
34064;SDS011;20339;49.754;20.158;2022-11-15T08:11:27;6.70;;;4.90;;
34064;SDS011;20339;49.754;20.158;2022-11-15T08:13:59;6.20;;;4.60;;
34064;SDS011;20339;49.754;20.158;2022-11-15T08:16:31;5.20;;;4.40;;
34064;SDS011;20339;49.754;20.158;2022-11-15T08:19:02;6.50;;;5.10;;
34064;SDS011;20339;49.754;20.158;2022-11-15T08:21:35;5.80;;;4.60;;
34064;SDS011;20339;49.754;20.158;2022-11-15T08:24:08;5.40;;;4.00;;
34064;SDS011;20339;49.754;20.158;2022-11-15T08:26:42;5.70;;;4.30;;
34064;SDS011;20339;49.754;20.158;2022-11-15T08:29:14;4.50;;;3.30;;
34064;SDS011;20339;49.754;20.158;2022-11-15T08:31:45;6.90;;;5.00;;
34064;SDS011;20339;49.754;20.158;2022-11-15T08:34:17;6.60;;;3.50;;
34064;SDS011;20339;49.754;20.158;2022-11-15T08:36:48;4.60;;;3.90;;
34064;SDS011;20339;49.754;20.158;2022-11-15T08:39:20;5.50;;;4.10;;
34064;SDS011;20339;49.754;20.158;2022-11-15T08:41:52;5.50;;;4.50;;
34064;SDS011;20339;49.754;20.158;2022-11-15T08:44:23;6.80;;;4.10;;
34064;SDS011;20339;49.754;20.158;2022-11-15T08:46:54;6.80;;;4.90;;
34064;SDS011;20339;49.754;20.158;2022-11-15T08:49:26;6.20;;;4.20;;
34064;SDS011;20339;49.754;20.158;2022-11-15T08:51:57;5.70;;;4.50;;
34064;SDS011;20339;49.754;20.158;2022-11-15T08:54:28;6.00;;;5.00;;
34064;SDS011;20339;49.754;20.158;2022-11-15T08:56:59;6.60;;;4.80;;
34064;SDS011;20339;49.754;20.158;2022-11-15T08:59:33;5.70;;;4.80;;
34064;SDS011;20339;49.754;20.158;2022-11-15T09:02:05;7.50;;;5.10;;
34064;SDS011;20339;49.754;20.158;2022-11-15T09:04:41;6.90;;;4.80;;
34064;SDS011;20339;49.754;20.158;2022-11-15T09:07:15;8.20;;;4.80;;
34064;SDS011;20339;49.754;20.158;2022-11-15T09:09:49;9.00;;;6.00;;
34064;SDS011;20339;49.754;20.158;2022-11-15T09:12:20;7.30;;;5.70;;
34064;SDS011;20339;49.754;20.158;2022-11-15T09:14:52;7.00;;;5.80;;
34064;SDS011;20339;49.754;20.158;2022-11-15T09:17:23;7.10;;;5.80;;
34064;SDS011;20339;49.754;20.158;2022-11-15T09:19:54;6.90;;;4.90;;
34064;SDS011;20339;49.754;20.158;2022-11-15T09:22:28;8.10;;;5.10;;
34064;SDS011;20339;49.754;20.158;2022-11-15T09:24:59;7.50;;;5.40;;
34064;SDS011;20339;49.754;20.158;2022-11-15T09:30:02;7.20;;;5.40;;
34064;SDS011;20339;49.754;20.158;2022-11-15T09:32:36;8.10;;;5.60;;
34064;SDS011;20339;49.754;20.158;2022-11-15T09:35:09;6.80;;;5.00;;
34064;SDS011;20339;49.754;20.158;2022-11-15T09:37:40;7.30;;;5.10;;
34064;SDS011;20339;49.754;20.158;2022-11-15T09:40:12;6.40;;;4.90;;
34064;SDS011;20339;49.754;20.158;2022-11-15T09:42:50;7.00;;;5.30;;
34064;SDS011;20339;49.754;20.158;2022-11-15T09:45:34;6.30;;;4.70;;
34064;SDS011;20339;49.754;20.158;2022-11-15T09:48:33;6.60;;;4.90;;
34064;SDS011;20339;49.754;20.158;2022-11-15T09:51:17;6.00;;;4.70;;
34064;SDS011;20339;49.754;20.158;2022-11-15T09:53:55;5.30;;;4.30;;
34064;SDS011;20339;49.754;20.158;2022-11-15T09:56:33;7.10;;;4.90;;
34064;SDS011;20339;49.754;20.158;2022-11-15T09:59:11;6.00;;;4.50;;
34064;SDS011;20339;49.754;20.158;2022-11-15T10:01:53;6.60;;;4.90;;
34064;SDS011;20339;49.754;20.158;2022-11-15T10:04:32;5.30;;;4.30;;
34064;SDS011;20339;49.754;20.158;2022-11-15T10:07:06;6.70;;;4.90;;
34064;SDS011;20339;49.754;20.158;2022-11-15T10:09:51;6.50;;;4.80;;
34064;SDS011;20339;49.754;20.158;2022-11-15T10:12:31;6.20;;;5.00;;
34064;SDS011;20339;49.754;20.158;2022-11-15T10:15:03;6.80;;;5.20;;
34064;SDS011;20339;49.754;20.158;2022-11-15T10:17:48;7.20;;;4.80;;
34064;SDS011;20339;49.754;20.158;2022-11-15T10:20:29;5.10;;;4.00;;
34064;SDS011;20339;49.754;20.158;2022-11-15T10:23:11;7.00;;;5.30;;
34064;SDS011;20339;49.754;20.158;2022-11-15T10:25:45;6.00;;;4.50;;
34064;SDS011;20339;49.754;20.158;2022-11-15T10:28:21;7.90;;;5.10;;
34064;SDS011;20339;49.754;20.158;2022-11-15T10:30:56;6.50;;;5.20;;
34064;SDS011;20339;49.754;20.158;2022-11-15T10:33:29;7.10;;;5.00;;
34064;SDS011;20339;49.754;20.158;2022-11-15T10:36:16;6.50;;;5.10;;
34064;SDS011;20339;49.754;20.158;2022-11-15T10:38:57;7.00;;;4.70;;
34064;SDS011;20339;49.754;20.158;2022-11-15T10:44:21;7.20;;;4.90;;
34064;SDS011;20339;49.754;20.158;2022-11-15T10:49:59;7.40;;;4.50;;
34064;SDS011;20339;49.754;20.158;2022-11-15T10:52:33;5.30;;;4.20;;
34064;SDS011;20339;49.754;20.158;2022-11-15T10:55:23;6.40;;;4.70;;
34064;SDS011;20339;49.754;20.158;2022-11-15T10:58:02;6.80;;;4.80;;
34064;SDS011;20339;49.754;20.158;2022-11-15T11:00:36;6.10;;;4.90;;
34064;SDS011;20339;49.754;20.158;2022-11-15T11:03:21;6.40;;;4.30;;
34064;SDS011;20339;49.754;20.158;2022-11-15T11:06:06;5.40;;;4.10;;
34064;SDS011;20339;49.754;20.158;2022-11-15T11:08:39;6.60;;;4.40;;
34064;SDS011;20339;49.754;20.158;2022-11-15T11:11:22;5.10;;;4.10;;
34064;SDS011;20339;49.754;20.158;2022-11-15T11:13:53;6.10;;;4.30;;
34064;SDS011;20339;49.754;20.158;2022-11-15T11:16:44;6.00;;;4.50;;
34064;SDS011;20339;49.754;20.158;2022-11-15T11:19:34;5.10;;;3.90;;
34064;SDS011;20339;49.754;20.158;2022-11-15T11:22:23;5.40;;;3.60;;
34064;SDS011;20339;49.754;20.158;2022-11-15T11:25:08;5.10;;;3.80;;
34064;SDS011;20339;49.754;20.158;2022-11-15T11:27:50;5.50;;;4.20;;
34064;SDS011;20339;49.754;20.158;2022-11-15T11:30:34;5.20;;;4.00;;
34064;SDS011;20339;49.754;20.158;2022-11-15T11:33:16;6.00;;;4.40;;
34064;SDS011;20339;49.754;20.158;2022-11-15T11:35:57;6.20;;;4.40;;
34064;SDS011;20339;49.754;20.158;2022-11-15T11:38:42;5.20;;;3.90;;
34064;SDS011;20339;49.754;20.158;2022-11-15T11:41:23;8.00;;;5.70;;
34064;SDS011;20339;49.754;20.158;2022-11-15T11:44:10;6.00;;;4.40;;
34064;SDS011;20339;49.754;20.158;2022-11-15T11:46:55;5.20;;;4.20;;
34064;SDS011;20339;49.754;20.158;2022-11-15T11:49:33;7.50;;;4.10;;
34064;SDS011;20339;49.754;20.158;2022-11-15T11:52:12;7.00;;;4.70;;
34064;SDS011;20339;49.754;20.158;2022-11-15T11:54:49;6.40;;;4.40;;
34064;SDS011;20339;49.754;20.158;2022-11-15T12:00:04;18.30;;;9.50;;
34064;SDS011;20339;49.754;20.158;2022-11-15T12:02:50;6.00;;;4.40;;
34064;SDS011;20339;49.754;20.158;2022-11-15T12:05:34;6.40;;;4.10;;
34064;SDS011;20339;49.754;20.158;2022-11-15T12:08:22;6.30;;;3.80;;
34064;SDS011;20339;49.754;20.158;2022-11-15T12:11:03;5.90;;;3.90;;
34064;SDS011;20339;49.754;20.158;2022-11-15T12:13:41;4.80;;;4.10;;
34064;SDS011;20339;49.754;20.158;2022-11-15T12:16:18;6.30;;;4.80;;
34064;SDS011;20339;49.754;20.158;2022-11-15T12:18:53;12.90;;;8.70;;
34064;SDS011;20339;49.754;20.158;2022-11-15T12:21:31;14.80;;;10.40;;
34064;SDS011;20339;49.754;20.158;2022-11-15T12:24:11;13.60;;;10.50;;
34064;SDS011;20339;49.754;20.158;2022-11-15T12:26:49;11.20;;;7.60;;
34064;SDS011;20339;49.754;20.158;2022-11-15T12:29:27;10.40;;;7.80;;
34064;SDS011;20339;49.754;20.158;2022-11-15T12:32:11;11.30;;;8.70;;
34064;SDS011;20339;49.754;20.158;2022-11-15T12:34:51;15.50;;;11.60;;
34064;SDS011;20339;49.754;20.158;2022-11-15T12:43:00;10.80;;;8.50;;
34064;SDS011;20339;49.754;20.158;2022-11-15T12:45:58;10.20;;;7.40;;
34064;SDS011;20339;49.754;20.158;2022-11-15T12:48:49;9.60;;;6.60;;
34064;SDS011;20339;49.754;20.158;2022-11-15T12:57:30;14.60;;;11.60;;
34064;SDS011;20339;49.754;20.158;2022-11-15T13:00:36;13.80;;;12.20;;
34064;SDS011;20339;49.754;20.158;2022-11-15T13:03:28;16.30;;;14.10;;
34064;SDS011;20339;49.754;20.158;2022-11-15T13:06:05;18.30;;;14.70;;
34064;SDS011;20339;49.754;20.158;2022-11-15T13:08:43;16.40;;;13.90;;
34064;SDS011;20339;49.754;20.158;2022-11-15T13:17:27;17.00;;;14.00;;
34064;SDS011;20339;49.754;20.158;2022-11-15T13:23:01;18.70;;;14.80;;
34064;SDS011;20339;49.754;20.158;2022-11-15T13:28:45;24.60;;;18.70;;
34064;SDS011;20339;49.754;20.158;2022-11-15T13:31:22;25.70;;;18.90;;
34064;SDS011;20339;49.754;20.158;2022-11-15T13:34:01;35.60;;;24.10;;
34064;SDS011;20339;49.754;20.158;2022-11-15T13:36:48;26.30;;;19.00;;
34064;SDS011;20339;49.754;20.158;2022-11-15T13:39:30;21.90;;;17.20;;
34064;SDS011;20339;49.754;20.158;2022-11-15T13:42:11;22.50;;;17.40;;
34064;SDS011;20339;49.754;20.158;2022-11-15T13:44:59;20.30;;;17.20;;
34064;SDS011;20339;49.754;20.158;2022-11-15T13:47:34;21.80;;;17.30;;
34064;SDS011;20339;49.754;20.158;2022-11-15T13:50:10;21.00;;;16.10;;
34064;SDS011;20339;49.754;20.158;2022-11-15T13:52:43;20.80;;;16.00;;
34064;SDS011;20339;49.754;20.158;2022-11-15T13:55:18;20.10;;;16.70;;
34064;SDS011;20339;49.754;20.158;2022-11-15T13:57:54;22.50;;;18.60;;
34064;SDS011;20339;49.754;20.158;2022-11-15T14:00:35;22.10;;;18.10;;
34064;SDS011;20339;49.754;20.158;2022-11-15T14:03:15;20.90;;;17.80;;
34064;SDS011;20339;49.754;20.158;2022-11-15T14:06:02;21.50;;;17.50;;
34064;SDS011;20339;49.754;20.158;2022-11-15T14:08:41;23.20;;;18.70;;
34064;SDS011;20339;49.754;20.158;2022-11-15T14:11:27;28.10;;;22.40;;
34064;SDS011;20339;49.754;20.158;2022-11-15T14:14:04;27.60;;;24.70;;
34064;SDS011;20339;49.754;20.158;2022-11-15T14:16:44;34.70;;;29.00;;
34064;SDS011;20339;49.754;20.158;2022-11-15T14:19:37;30.40;;;26.10;;
34064;SDS011;20339;49.754;20.158;2022-11-15T14:22:11;31.30;;;27.90;;
34064;SDS011;20339;49.754;20.158;2022-11-15T14:25:16;35.40;;;29.80;;
34064;SDS011;20339;49.754;20.158;2022-11-15T14:28:10;35.50;;;30.60;;
34064;SDS011;20339;49.754;20.158;2022-11-15T14:30:45;34.70;;;30.90;;
34064;SDS011;20339;49.754;20.158;2022-11-15T14:33:23;53.20;;;44.50;;
34064;SDS011;20339;49.754;20.158;2022-11-15T14:36:04;60.00;;;48.80;;
34064;SDS011;20339;49.754;20.158;2022-11-15T14:38:42;55.70;;;46.30;;
34064;SDS011;20339;49.754;20.158;2022-11-15T14:41:21;51.50;;;42.00;;
34064;SDS011;20339;49.754;20.158;2022-11-15T14:43:55;58.30;;;44.00;;
34064;SDS011;20339;49.754;20.158;2022-11-15T14:46:27;56.80;;;44.20;;
34064;SDS011;20339;49.754;20.158;2022-11-15T14:49:02;52.00;;;41.30;;
34064;SDS011;20339;49.754;20.158;2022-11-15T14:51:34;49.40;;;40.30;;
34064;SDS011;20339;49.754;20.158;2022-11-15T14:54:07;44.60;;;36.40;;
34064;SDS011;20339;49.754;20.158;2022-11-15T14:56:42;42.30;;;34.50;;
34064;SDS011;20339;49.754;20.158;2022-11-15T14:59:15;44.40;;;34.60;;
34064;SDS011;20339;49.754;20.158;2022-11-15T15:01:48;46.30;;;36.20;;
34064;SDS011;20339;49.754;20.158;2022-11-15T15:04:22;46.20;;;35.80;;
34064;SDS011;20339;49.754;20.158;2022-11-15T15:06:57;46.40;;;38.40;;
34064;SDS011;20339;49.754;20.158;2022-11-15T15:09:30;58.90;;;49.00;;
34064;SDS011;20339;49.754;20.158;2022-11-15T15:12:02;62.30;;;49.50;;
34064;SDS011;20339;49.754;20.158;2022-11-15T15:14:41;56.20;;;47.60;;
34064;SDS011;20339;49.754;20.158;2022-11-15T15:17:13;55.00;;;45.90;;
34064;SDS011;20339;49.754;20.158;2022-11-15T15:19:46;56.40;;;47.80;;
34064;SDS011;20339;49.754;20.158;2022-11-15T15:22:18;52.40;;;45.10;;
34064;SDS011;20339;49.754;20.158;2022-11-15T15:24:53;53.90;;;44.30;;
34064;SDS011;20339;49.754;20.158;2022-11-15T15:27:25;50.20;;;42.90;;
34064;SDS011;20339;49.754;20.158;2022-11-15T15:29:56;48.30;;;40.80;;
34064;SDS011;20339;49.754;20.158;2022-11-15T15:32:28;53.40;;;42.90;;
34064;SDS011;20339;49.754;20.158;2022-11-15T15:34:59;49.70;;;43.30;;
34064;SDS011;20339;49.754;20.158;2022-11-15T15:37:31;57.10;;;44.20;;
34064;SDS011;20339;49.754;20.158;2022-11-15T15:40:08;61.10;;;51.00;;
34064;SDS011;20339;49.754;20.158;2022-11-15T15:42:44;54.70;;;44.70;;
34064;SDS011;20339;49.754;20.158;2022-11-15T15:45:16;42.60;;;36.30;;
34064;SDS011;20339;49.754;20.158;2022-11-15T15:47:49;42.20;;;33.90;;
34064;SDS011;20339;49.754;20.158;2022-11-15T15:50:22;46.60;;;39.70;;
34064;SDS011;20339;49.754;20.158;2022-11-15T15:52:56;51.60;;;43.80;;
34064;SDS011;20339;49.754;20.158;2022-11-15T15:55:32;50.00;;;43.30;;
34064;SDS011;20339;49.754;20.158;2022-11-15T15:58:04;50.50;;;43.20;;